createdAt,value
2022-09-20T00:00:50.100Z,98235.20
2022-09-20T00:07:53.336Z,98232.40
2022-09-20T00:14:12.504Z,98246.20
2022-09-20T00:19:53.547Z,98245.20
2022-09-20T00:25:32.320Z,98244.80
2022-09-20T00:31:55.012Z,98241.60
2022-09-20T00:37:20.253Z,98245.00
2022-09-20T00:42:57.201Z,98247.00
2022-09-20T00:48:31.326Z,98250.20
2022-09-20T00:55:02.852Z,98246.80
2022-09-20T01:02:06.194Z,98245.60
2022-09-20T01:07:38.253Z,98251.00
2022-09-20T01:13:14.914Z,98255.20
2022-09-20T01:20:01.020Z,98257.80
2022-09-20T01:27:10.366Z,98260.80
2022-09-20T01:34:07.812Z,98255.60
2022-09-20T01:40:20.693Z,98264.40
2022-09-20T01:46:42.485Z,98257.00
2022-09-20T01:53:37.625Z,98259.20
2022-09-20T02:00:07.473Z,98260.60
2022-09-20T02:06:57.702Z,98260.00
2022-09-20T02:13:37.805Z,98262.00
2022-09-20T02:20:10.401Z,98264.40
2022-09-20T02:26:46.263Z,98264.60
2022-09-20T02:33:14.857Z,98262.60
2022-09-20T02:38:51.883Z,98270.60
2022-09-20T02:45:55.538Z,98267.40
2022-09-20T02:51:47.101Z,98279.60
2022-09-20T02:57:50.033Z,98279.20
2022-09-20T03:04:38.450Z,98275.60
2022-09-20T03:10:48.366Z,98281.00
2022-09-20T03:16:39.183Z,98283.60
2022-09-20T03:22:39.730Z,98279.80
2022-09-20T03:29:23.651Z,98283.20
2022-09-20T03:36:35.202Z,98294.40
2022-09-20T03:43:42.816Z,98299.80
2022-09-20T03:50:44.068Z,98292.60
2022-09-20T03:57:12.212Z,98308.00
2022-09-20T04:03:34.065Z,98304.00
2022-09-20T04:10:52.013Z,98305.60
2022-09-20T04:17:05.827Z,98312.20
2022-09-20T04:23:21.948Z,98318.60
2022-09-20T04:30:33.666Z,98321.60
2022-09-20T04:36:57.873Z,98331.80
2022-09-20T04:43:17.477Z,98331.80
2022-09-20T04:49:50.473Z,98332.80
2022-09-20T04:55:46.711Z,98340.20
2022-09-20T05:02:21.384Z,98340.00
2022-09-20T05:08:33.688Z,98344.20
2022-09-20T05:14:39.370Z,98345.60
2022-09-20T05:21:39.550Z,98357.00
2022-09-20T05:28:50.968Z,98362.60
2022-09-20T05:35:06.040Z,98366.00
2022-09-20T05:41:40.330Z,98358.60
2022-09-20T05:48:42.247Z,98368.80
2022-09-20T05:56:00.192Z,98372.80
2022-09-20T06:03:09.515Z,98377.80
2022-09-20T06:10:42.205Z,98375.80
2022-09-20T06:16:56.783Z,98373.80
2022-09-20T06:23:05.592Z,98379.60
2022-09-20T06:29:51.535Z,98384.60
2022-09-20T06:35:59.237Z,98387.40
2022-09-20T06:41:56.080Z,98387.80
2022-09-20T06:47:30.962Z,98393.00
2022-09-20T06:53:31.826Z,98397.40
2022-09-20T06:59:32.147Z,98410.40
2022-09-20T07:06:00.655Z,98418.80
2022-09-20T07:12:56.404Z,98420.40
2022-09-20T07:19:48.466Z,98423.20
2022-09-20T07:26:48.398Z,98433.60
2022-09-20T07:33:11.995Z,98440.00
2022-09-20T07:39:20.574Z,98449.60
2022-09-20T07:46:23.459Z,98445.20
2022-09-20T07:52:39.095Z,98453.40
2022-09-20T07:59:41.883Z,98459.80
2022-09-20T08:05:27.020Z,98465.00
2022-09-20T08:11:36.823Z,98465.40
2022-09-20T08:17:19.680Z,98467.80
2022-09-20T08:23:23.522Z,98474.80
2022-09-20T08:30:06.842Z,98479.80
2022-09-20T08:37:09.639Z,98481.80
2022-09-20T08:44:15.612Z,98486.60
2022-09-20T08:50:29.039Z,98493.40
2022-09-20T08:56:04.716Z,98497.40
2022-09-20T09:02:44.284Z,98505.20
2022-09-20T09:09:39.836Z,98505.60
2022-09-20T09:16:22.513Z,98504.80
2022-09-20T09:23:26.695Z,98501.60
2022-09-20T09:30:22.016Z,98500.40
2022-09-20T09:37:28.451Z,98500.20
2022-09-20T09:44:17.316Z,98493.40
2022-09-20T09:50:57.784Z,98495.00
2022-09-20T09:58:24.452Z,98490.60
2022-09-20T10:05:30.866Z,98494.80
2022-09-20T10:12:39.186Z,98495.20
2022-09-20T10:19:31.927Z,98487.00
2022-09-20T10:26:40.560Z,98492.20
2022-09-20T10:33:44.179Z,98515.80
2022-09-20T10:40:52.482Z,98505.00
2022-09-20T10:48:01.124Z,98499.80
2022-09-20T10:54:48.517Z,98494.60
2022-09-20T11:01:46.662Z,98501.60
2022-09-20T11:08:37.898Z,98510.00
2022-09-20T11:15:34.735Z,98507.40
2022-09-20T11:22:23.546Z,98499.00
2022-09-20T11:29:08.602Z,98501.60
2022-09-20T11:35:22.072Z,98501.00
2022-09-20T11:41:23.196Z,98496.20
2022-09-20T11:47:54.009Z,98488.80
2022-09-20T11:54:06.339Z,98491.40
2022-09-20T12:00:24.773Z,98488.80
2022-09-20T12:06:50.875Z,98493.80
2022-09-20T12:13:44.039Z,98493.60
2022-09-20T12:20:51.004Z,98495.00
2022-09-20T12:26:45.178Z,98503.60
2022-09-20T12:32:36.931Z,98492.60
2022-09-20T12:39:29.696Z,98484.40
2022-09-20T12:46:12.004Z,98485.20
2022-09-20T12:52:59.199Z,98483.20
2022-09-20T12:59:07.063Z,98482.60
2022-09-20T13:05:25.404Z,98491.40
2022-09-20T13:11:26.163Z,98483.40
2022-09-20T13:17:21.474Z,98491.60
2022-09-20T13:23:15.416Z,98491.40
2022-09-20T13:29:38.921Z,98492.40
2022-09-20T13:36:17.392Z,98491.20
2022-09-20T13:43:12.960Z,98496.20
2022-09-20T13:50:19.173Z,98498.00
2022-09-20T13:57:02.947Z,98487.80
2022-09-20T14:04:06.175Z,98488.60
2022-09-20T14:11:09.391Z,98490.00
2022-09-20T14:17:55.232Z,98493.20
2022-09-20T14:24:51.751Z,98501.20
2022-09-20T14:31:57.358Z,98497.80
2022-09-20T14:39:07.701Z,98495.80
2022-09-20T14:45:58.653Z,98504.20
2022-09-20T14:53:07.317Z,98501.00
2022-09-20T15:00:00.553Z,98504.40
2022-09-20T15:06:39.009Z,98511.60
2022-09-20T15:13:18.151Z,98511.00
2022-09-20T15:20:24.285Z,98522.40
2022-09-20T15:27:28.485Z,98519.00
2022-09-20T15:34:13.012Z,98531.60
2022-09-20T15:41:14.764Z,98536.20
2022-09-20T15:47:49.864Z,98545.40
2022-09-20T15:54:01.960Z,98563.20
2022-09-20T16:00:22.324Z,98559.40
2022-09-20T16:07:21.165Z,98566.20
2022-09-20T16:14:24.269Z,98573.60
2022-09-20T16:21:27.517Z,98582.60
2022-09-20T16:28:30.663Z,98585.80
2022-09-20T16:35:33.884Z,98596.00
2022-09-20T16:42:37.241Z,98607.00
2022-09-20T16:49:40.964Z,98620.80
2022-09-20T16:56:47.057Z,98625.60
2022-09-20T17:03:41.218Z,98631.20
2022-09-20T17:10:44.657Z,98638.80
2022-09-20T17:17:48.574Z,98648.20
2022-09-20T17:24:45.835Z,98646.80
2022-09-20T17:31:42.966Z,98652.80
2022-09-20T17:38:46.724Z,98664.20
2022-09-20T17:45:29.847Z,98669.20
2022-09-20T17:52:05.991Z,98680.40
2022-09-20T17:59:00.181Z,98684.20
2022-09-20T18:05:49.505Z,98693.00
2022-09-20T18:12:36.038Z,98702.20
2022-09-20T18:19:38.729Z,98710.60
2022-09-20T18:26:45.072Z,98718.40
2022-09-20T18:33:46.810Z,98726.00
2022-09-20T18:40:31.166Z,98735.80
2022-09-20T18:47:10.917Z,98736.40
2022-09-20T18:54:16.791Z,98751.40
2022-09-20T19:01:19.958Z,98747.80
2022-09-20T19:08:40.263Z,98753.00
2022-09-20T19:15:43.303Z,98754.20
2022-09-20T19:23:00.987Z,98759.80
2022-09-20T19:29:55.524Z,98758.00
2022-09-20T19:36:57.642Z,98771.40
2022-09-20T19:44:09.883Z,98778.20
2022-09-20T19:51:24.589Z,98774.20
2022-09-20T19:58:30.364Z,98775.60
2022-09-20T20:05:32.240Z,98784.80
2022-09-20T20:12:35.225Z,98795.60
2022-09-20T20:20:01.781Z,98801.40
2022-09-20T20:27:10.372Z,98794.80
2022-09-20T20:34:16.233Z,98785.40
2022-09-20T20:41:19.172Z,98796.40
2022-09-20T20:48:17.081Z,98797.40
2022-09-20T20:55:19.969Z,98803.00
2022-09-20T21:02:08.605Z,98808.40
2022-09-20T21:09:14.178Z,98806.20
2022-09-20T21:16:08.982Z,98801.60
2022-09-20T21:22:33.313Z,98797.60
2022-09-20T21:29:24.829Z,98796.80
2022-09-20T21:36:28.045Z,98806.40
2022-09-20T21:43:30.637Z,98810.80
2022-09-20T21:50:21.904Z,98817.20
2022-09-20T21:57:24.890Z,98817.80
2022-09-20T22:04:19.262Z,98823.40
2022-09-20T22:11:05.145Z,98827.40
2022-09-20T22:17:50.275Z,98826.80
2022-09-20T22:24:45.741Z,98822.00
2022-09-20T22:31:44.657Z,98821.80
2022-09-20T22:38:47.397Z,98827.00
2022-09-20T22:45:33.829Z,98831.00
2022-09-20T22:52:25.891Z,98828.40
2022-09-20T22:59:04.650Z,98829.80
2022-09-20T23:06:07.143Z,98828.40
2022-09-20T23:13:09.686Z,98830.00
2022-09-20T23:20:05.310Z,98838.40
2022-09-20T23:26:55.284Z,98835.20
2022-09-20T23:33:57.938Z,98843.20
2022-09-20T23:40:12.005Z,98839.80
2022-09-20T23:46:05.117Z,98837.20
2022-09-20T23:52:22.551Z,98839.00
2022-09-20T23:58:25.126Z,98845.40
